CBAPRS
Automatic Packet Reporting System for everyone...
Symbol
PositionLatitude: 52.1825°
Longitude: 10.068°
Speed0km/h
Course
AltitudeN/A
Commentg007t048r001p043P006h90b10113l1226eCumulusFOs
Status
PathDAX207-13>APRS via ,TCPIP*
Last heardFri, 5 Jun 2020 03:10:00 +0000

Time is in UTC

  • Wed, 1 Jul 2020 23:50:00 +0000: DAX207-13>APRS,,TCPIP*:@312350z5210.95N/01004.08E_092/000g002t051r000p000P000h60b10157L000eCumulusFOs
  • Wed, 1 Jul 2020 23:40:00 +0000: DAX207-13>APRS,,TCPIP*:@312340z5210.95N/01004.08E_122/000g002t052r000p000P000h59b10157L000eCumulusFOs
  • Wed, 1 Jul 2020 23:30:00 +0000: DAX207-13>APRS,,TCPIP*:@312330z5210.95N/01004.08E_102/001g002t052r000p000P000h59b10158L000eCumulusFOs
  • Wed, 1 Jul 2020 23:20:00 +0000: DAX207-13>APRS,,TCPIP*:@312320z5210.95N/01004.08E_104/001g003t053r000p000P000h60b10156L000eCumulusFOs
  • Wed, 1 Jul 2020 23:10:00 +0000: DAX207-13>APRS,,TCPIP*:@312310z5210.95N/01004.08E_092/002g004t053r000p000P000h60b10158L000eCumulusFOs
  • Wed, 1 Jul 2020 23:00:00 +0000: DAX207-13>APRS,,TCPIP*:@312300z5210.95N/01004.08E_073/001g003t053r000p000P000h60b10158L000eCumulusFOs
  • Wed, 1 Jul 2020 22:50:00 +0000: DAX207-13>APRS,,TCPIP*:@312250z5210.95N/01004.08E_074/002g004t053r000p000P000h60b10157L000eCumulusFOs
  • Wed, 1 Jul 2020 22:40:00 +0000: DAX207-13>APRS,,TCPIP*:@312240z5210.95N/01004.08E_050/003g006t053r000p000P000h60b10158L000eCumulusFOs
  • Wed, 1 Jul 2020 22:30:00 +0000: DAX207-13>APRS,,TCPIP*:@312230z5210.95N/01004.08E_058/004g008t054r000p000P000h60b10156L000eCumulusFOs
  • Wed, 1 Jul 2020 22:20:00 +0000: DAX207-13>APRS,,TCPIP*:@312220z5210.95N/01004.08E_061/006g009t055r000p000P000h54b10156L000eCumulusFOs
  • Wed, 1 Jul 2020 22:10:00 +0000: DAX207-13>APRS,,TCPIP*:@312210z5210.95N/01004.08E_082/005g009t055r000p000P000h55b10155L000eCumulusFOs
  • Wed, 1 Jul 2020 22:00:00 +0000: DAX207-13>APRS,,TCPIP*:@312200z5210.95N/01004.08E_064/008g009t056r000p000P000h56b10154L000eCumulusFOs
  • Fri, 5 Jun 2020 03:10:00 +0000: DAX207-13>APRS,,TCPIP*:@050310z5210.95N/01004.08E_295/004g007t048r001p043P006h90b10113l1226eCumulusFOs
  • Fri, 5 Jun 2020 03:00:00 +0000: DAX207-13>APRS,,TCPIP*:@050300z5210.95N/01004.08E_296/002g004t048r001p043P006h90b10112L000eCumulusFOs
  • Fri, 5 Jun 2020 02:50:00 +0000: DAX207-13>APRS,,TCPIP*:@050250z5210.95N/01004.08E_283/003g004t048r001p043P006h90b10113L051eCumulusFOs
  • Fri, 5 Jun 2020 02:40:00 +0000: DAX207-13>APRS,,TCPIP*:@050240z5210.95N/01004.08E_268/002g004t048r001p000P006h90b10111L000eCumulusFOs
  • Fri, 5 Jun 2020 02:30:00 +0000: DAX207-13>APRS,,TCPIP*:@050230z5210.95N/01004.08E_279/002g006t048r001p000P005h91b10111L000eCumulusFOs
  • Fri, 5 Jun 2020 02:20:00 +0000: DAX207-13>APRS,,TCPIP*:@050220z5210.95N/01004.08E_287/004g008t048r001p000P005h91b10112L000eCumulusFOs
  • Fri, 5 Jun 2020 02:10:00 +0000: DAX207-13>APRS,,TCPIP*:@050210z5210.95N/01004.08E_340/005g008t049r001p000P005h92b10112L000eCumulusFOs
  • Fri, 5 Jun 2020 02:00:00 +0000: DAX207-13>APRS,,TCPIP*:@050200z5210.95N/01004.08E_280/006g008t049r001p000P005h92b10112L000eCumulusFOs
  • Fri, 5 Jun 2020 01:50:00 +0000: DAX207-13>APRS,,TCPIP*:@050150z5210.95N/01004.08E_327/002g008t049r001p000P005h92b10112L000eCumulusFOs
  • Fri, 5 Jun 2020 01:40:00 +0000: DAX207-13>APRS,,TCPIP*:@050140z5210.95N/01004.08E_266/004g009t050r002p000P005h92b10112L000eCumulusFOs
  • Fri, 5 Jun 2020 01:30:00 +0000: DAX207-13>APRS,,TCPIP*:@050130z5210.95N/01004.08E_321/002g005t049r001p000P004h91b10112L000eCumulusFOs
  • Fri, 5 Jun 2020 01:20:00 +0000: DAX207-13>APRS,,TCPIP*:@050120z5210.95N/01004.08E_330/002g008t049r002p000P004h91b10111L000eCumulusFOs
  • Fri, 5 Jun 2020 01:10:00 +0000: DAX207-13>APRS,,TCPIP*:@050110z5210.95N/01004.08E_332/004g009t050r004p000P004h91b10109L000eCumulusFOs
  • Fri, 5 Jun 2020 01:00:00 +0000: DAX207-13>APRS,,TCPIP*:@050100z5210.95N/01004.08E_332/004g012t050r004p000P004h91b10107L000eCumulusFOs
  • Fri, 5 Jun 2020 00:50:00 +0000: DAX207-13>APRS,,TCPIP*:@050050z5210.95N/01004.08E_320/005g015t051r004p000P004h91b10107L000eCumulusFOs
  • Fri, 5 Jun 2020 00:40:00 +0000: DAX207-13>APRS,,TCPIP*:@050040z5210.95N/01004.08E_330/005g008t051r002p000P002h91b10107L000eCumulusFOs
  • Fri, 5 Jun 2020 00:30:00 +0000: DAX207-13>APRS,,TCPIP*:@050030z5210.95N/01004.08E_340/004g010t052r002p000P002h91b10104L000eCumulusFOs
  • Fri, 5 Jun 2020 00:20:00 +0000: DAX207-13>APRS,,TCPIP*:@050020z5210.95N/01004.08E_342/003g008t052r001p000P001h91b10104L000eCumulusFOs
  • Fri, 5 Jun 2020 00:10:00 +0000: DAX207-13>APRS,,TCPIP*:@050010z5210.95N/01004.08E_299/003g004t053r000p000P000h90b10103L000eCumulusFOs
  • Fri, 5 Jun 2020 00:00:00 +0000: DAX207-13>APRS,,TCPIP*:@050000z5210.95N/01004.08E_299/002g002t053r000p000P000h90b10103L000eCumulusFOs
  • Thu, 4 Jun 2020 23:50:00 +0000: DAX207-13>APRS,,TCPIP*:@042350z5210.95N/01004.08E_313/001g002t053r000p000P000h90b10102L000eCumulusFOs
  • Thu, 4 Jun 2020 23:40:00 +0000: DAX207-13>APRS,,TCPIP*:@042340z5210.95N/01004.08E_226/000g002t053r000p000P000h90b10102L000eCumulusFOs
  • Thu, 4 Jun 2020 23:30:00 +0000: DAX207-13>APRS,,TCPIP*:@042330z5210.95N/01004.08E_276/000g002t053r000p000P000h89b10102L000eCumulusFOs
  • Thu, 4 Jun 2020 23:20:00 +0000: DAX207-13>APRS,,TCPIP*:@042320z5210.95N/01004.08E_269/001g002t053r000p000P000h88b10101L000eCumulusFOs
  • Thu, 4 Jun 2020 23:10:00 +0000: DAX207-13>APRS,,TCPIP*:@042310z5210.95N/01004.08E_300/000g002t053r000p000P000h88b10102L000eCumulusFOs
  • Thu, 4 Jun 2020 23:00:00 +0000: DAX207-13>APRS,,TCPIP*:@042300z5210.95N/01004.08E_239/002g003t053r000p000P000h87b10104L000eCumulusFOs
  • Thu, 4 Jun 2020 22:50:00 +0000: DAX207-13>APRS,,TCPIP*:@042250z5210.95N/01004.08E_288/001g003t053r000p000P000h86b10101L000eCumulusFOs
  • Thu, 4 Jun 2020 22:40:00 +0000: DAX207-13>APRS,,TCPIP*:@042240z5210.95N/01004.08E_247/001g003t053r000p000P000h86b10103L000eCumulusFOs
  • Thu, 4 Jun 2020 22:30:00 +0000: DAX207-13>APRS,,TCPIP*:@042230z5210.95N/01004.08E_302/002g004t053r000p000P000h86b10104L000eCumulusFOs
  • Thu, 4 Jun 2020 22:20:00 +0000: DAX207-13>APRS,,TCPIP*:@042220z5210.95N/01004.08E_293/001g004t053r000p000P000h86b10105L000eCumulusFOs
  • Thu, 4 Jun 2020 22:10:00 +0000: DAX207-13>APRS,,TCPIP*:@042210z5210.95N/01004.08E_004/002g003t053r000p000P000h86b10104L000eCumulusFOs
  • Thu, 4 Jun 2020 22:00:00 +0000: DAX207-13>APRS,,TCPIP*:@042200z5210.95N/01004.08E_326/002g007t053r000p000P000h86b10103L000eCumulusFOs
  • Thu, 4 Jun 2020 21:50:00 +0000: DAX207-13>APRS,,TCPIP*:@042150z5210.95N/01004.08E_283/003g006t054r000p000P037h87b10103L000eCumulusFOs
  • Thu, 4 Jun 2020 21:40:00 +0000: DAX207-13>APRS,,TCPIP*:@042140z5210.95N/01004.08E_319/003g006t054r000p000P037h87b10102L000eCumulusFOs
  • Thu, 4 Jun 2020 21:30:00 +0000: DAX207-13>APRS,,TCPIP*:@042130z5210.95N/01004.08E_296/002g008t054r000p000P037h89b10103L000eCumulusFOs
  • Thu, 4 Jun 2020 21:20:00 +0000: DAX207-13>APRS,,TCPIP*:@042120z5210.95N/01004.08E_302/002g005t054r000p000P037h88b10103L000eCumulusFOs
  • Thu, 4 Jun 2020 21:10:00 +0000: DAX207-13>APRS,,TCPIP*:@042110z5210.95N/01004.08E_319/004g006t054r000p000P037h88b10102L000eCumulusFOs
  • Thu, 4 Jun 2020 21:00:00 +0000: DAX207-13>APRS,,TCPIP*:@042100z5210.95N/01004.08E_303/003g005t054r000p000P037h87b10102L000eCumulusFOs
  • Thu, 4 Jun 2020 20:50:00 +0000: DAX207-13>APRS,,TCPIP*:@042050z5210.95N/01004.08E_283/003g006t054r000p000P037h88b10100L000eCumulusFOs
  • Thu, 4 Jun 2020 20:40:00 +0000: DAX207-13>APRS,,TCPIP*:@042040z5210.95N/01004.08E_296/002g007t055r000p000P037h84b10101L000eCumulusFOs
  • Thu, 4 Jun 2020 20:30:00 +0000: DAX207-13>APRS,,TCPIP*:@042030z5210.95N/01004.08E_324/002g007t055r000p000P037h84b10100L000eCumulusFOs
  • Thu, 4 Jun 2020 20:20:00 +0000: DAX207-13>APRS,,TCPIP*:@042020z5210.95N/01004.08E_303/003g008t055r000p000P037h84b10101L000eCumulusFOs
  • Thu, 4 Jun 2020 20:10:00 +0000: DAX207-13>APRS,,TCPIP*:@042010z5210.95N/01004.08E_278/004g004t055r000p000P037h83b10101L000eCumulusFOs
  • Thu, 4 Jun 2020 20:00:00 +0000: DAX207-13>APRS,,TCPIP*:@042000z5210.95N/01004.08E_283/003g008t055r000p000P037h82b10101L000eCumulusFOs
  • Thu, 4 Jun 2020 19:50:00 +0000: DAX207-13>APRS,,TCPIP*:@041950z5210.95N/01004.08E_328/003g011t055r000p000P037h82b10099L000eCumulusFOs
  • Thu, 4 Jun 2020 19:40:00 +0000: DAX207-13>APRS,,TCPIP*:@041940z5210.95N/01004.08E_338/003g011t055r000p000P037h82b10098L000eCumulusFOs
  • Thu, 4 Jun 2020 19:30:00 +0000: DAX207-13>APRS,,TCPIP*:@041930z5210.95N/01004.08E_328/005g011t055r000p000P037h83b10098l087eCumulusFOs
  • Thu, 4 Jun 2020 19:20:00 +0000: DAX207-13>APRS,,TCPIP*:@041920z5210.95N/01004.08E_312/003g011t056r000p000P037h83b10097l501eCumulusFOs
  • Thu, 4 Jun 2020 19:10:00 +0000: DAX207-13>APRS,,TCPIP*:@041910z5210.95N/01004.08E_329/004g007t056r000p000P037h83b10097l1070eCumulusFOs
  • Thu, 4 Jun 2020 19:00:00 +0000: DAX207-13>APRS,,TCPIP*:@041900z5210.95N/01004.08E_278/004g008t056r000p000P037h83b10097l811eCumulusFOs
  • Thu, 4 Jun 2020 18:50:00 +0000: DAX207-13>APRS,,TCPIP*:@041850z5210.95N/01004.08E_316/005g011t056r000p000P037h83b10094l811eCumulusFOs
  • Thu, 4 Jun 2020 18:40:00 +0000: DAX207-13>APRS,,TCPIP*:@041840z5210.95N/01004.08E_320/009g011t056r000p000P037h84b10093L517eCumulusFOs
  • Thu, 4 Jun 2020 18:30:00 +0000: DAX207-13>APRS,,TCPIP*:@041830z5210.95N/01004.08E_320/006g008t057r000p000P037h84b10092l620eCumulusFOs
  • Thu, 4 Jun 2020 18:20:00 +0000: DAX207-13>APRS,,TCPIP*:@041820z5210.95N/01004.08E_002/003g011t057r000p000P037h83b10094l604eCumulusFOs
  • Thu, 4 Jun 2020 18:10:00 +0000: DAX207-13>APRS,,TCPIP*:@041810z5210.95N/01004.08E_277/007g011t057r000p000P037h81b10095l982eCumulusFOs
  • Thu, 4 Jun 2020 18:00:00 +0000: DAX207-13>APRS,,TCPIP*:@041800z5210.95N/01004.08E_282/007g011t058r000p000P037h81b10094l982eCumulusFOs
  • Thu, 4 Jun 2020 17:50:00 +0000: DAX207-13>APRS,,TCPIP*:@041750z5210.95N/01004.08E_313/005g009t058r000p000P037h81b10091l982eCumulusFOs
  • Thu, 4 Jun 2020 17:40:00 +0000: DAX207-13>APRS,,TCPIP*:@041740z5210.95N/01004.08E_310/004g011t059r000p000P037h81b10090l1034eCumulusFOs
  • Thu, 4 Jun 2020 17:30:00 +0000: DAX207-13>APRS,,TCPIP*:@041730z5210.95N/01004.08E_327/004g011t059r000p000P037h81b10089l205eCumulusFOs
  • Thu, 4 Jun 2020 17:20:00 +0000: DAX207-13>APRS,,TCPIP*:@041720z5210.95N/01004.08E_333/004g008t060r000p000P037h80b10089L079eCumulusFOs
  • Thu, 4 Jun 2020 17:10:00 +0000: DAX207-13>APRS,,TCPIP*:@041710z5210.95N/01004.08E_318/006g010t061r000p000P037h80b10089L084eCumulusFOs
  • Thu, 4 Jun 2020 17:00:00 +0000: DAX207-13>APRS,,TCPIP*:@041700z5210.95N/01004.08E_343/009g013t061r000p000P037h79b10089L091eCumulusFOs
  • Thu, 4 Jun 2020 16:50:00 +0000: DAX207-13>APRS,,TCPIP*:@041650z5210.95N/01004.08E_261/006g008t062r000p000P037h79b10087L843eCumulusFOs
  • Thu, 4 Jun 2020 16:40:00 +0000: DAX207-13>APRS,,TCPIP*:@041640z5210.95N/01004.08E_217/004g011t063r000p000P037h78b10085L102eCumulusFOs
  • Thu, 4 Jun 2020 16:30:00 +0000: DAX207-13>APRS,,TCPIP*:@041630z5210.95N/01004.08E_206/002g007t064r000p000P037h74b10083L191eCumulusFOs
  • Thu, 4 Jun 2020 16:20:00 +0000: DAX207-13>APRS,,TCPIP*:@041620z5210.95N/01004.08E_222/004g006t064r000p000P037h77b10083L268eCumulusFOs
  • Thu, 4 Jun 2020 16:10:00 +0000: DAX207-13>APRS,,TCPIP*:@041610z5210.95N/01004.08E_153/002g007t064r000p000P037h76b10083L223eCumulusFOs
  • Thu, 4 Jun 2020 16:00:00 +0000: DAX207-13>APRS,,TCPIP*:@041600z5210.95N/01004.08E_206/005g007t064r001p000P037h77b10085L378eCumulusFOs
  • Thu, 4 Jun 2020 15:50:00 +0000: DAX207-13>APRS,,TCPIP*:@041550z5210.95N/01004.08E_199/004g006t062r001p000P037h83b10087L347eCumulusFOs
  • Thu, 4 Jun 2020 15:40:00 +0000: DAX207-13>APRS,,TCPIP*:@041540z5210.95N/01004.08E_211/002g005t061r001p000P037h82b10090L174eCumulusFOs
  • Thu, 4 Jun 2020 15:30:00 +0000: DAX207-13>APRS,,TCPIP*:@041530z5210.95N/01004.08E_197/002g004t061r001p000P037h85b10090L202eCumulusFOs
  • Thu, 4 Jun 2020 15:20:00 +0000: DAX207-13>APRS,,TCPIP*:@041520z5210.95N/01004.08E_186/002g004t061r001p000P037h85b10091L157eCumulusFOs
  • Thu, 4 Jun 2020 15:10:00 +0000: DAX207-13>APRS,,TCPIP*:@041510z5210.95N/01004.08E_201/002g003t061r002p000P037h87b10092L165eCumulusFOs
  • Thu, 4 Jun 2020 15:00:00 +0000: DAX207-13>APRS,,TCPIP*:@041500z5210.95N/01004.08E_212/002g004t060r001p000P035h89b10093L112eCumulusFOs
  • Thu, 4 Jun 2020 14:50:00 +0000: DAX207-13>APRS,,TCPIP*:@041450z5210.95N/01004.08E_221/002g003t060r001p000P035h89b10093L105eCumulusFOs
  • Thu, 4 Jun 2020 14:40:00 +0000: DAX207-13>APRS,,TCPIP*:@041440z5210.95N/01004.08E_236/002g004t060r001p000P035h89b10095L124eCumulusFOs
  • Thu, 4 Jun 2020 14:30:00 +0000: DAX207-13>APRS,,TCPIP*:@041430z5210.95N/01004.08E_246/001g002t059r001p000P035h90b10095L117eCumulusFOs
  • Thu, 4 Jun 2020 14:20:00 +0000: DAX207-13>APRS,,TCPIP*:@041420z5210.95N/01004.08E_217/002g002t060r001p000P035h90b10095L097eCumulusFOs
  • Thu, 4 Jun 2020 14:10:00 +0000: DAX207-13>APRS,,TCPIP*:@041410z5210.95N/01004.08E_223/002g003t059r000p000P034h91b10096L108eCumulusFOs
  • Thu, 4 Jun 2020 14:00:00 +0000: DAX207-13>APRS,,TCPIP*:@041400z5210.95N/01004.08E_222/002g003t059r005p000P034h91b10099L109eCumulusFOs
  • Thu, 4 Jun 2020 13:50:00 +0000: DAX207-13>APRS,,TCPIP*:@041350z5210.95N/01004.08E_250/002g003t058r008p000P034h91b10100L091eCumulusFOs
  • Thu, 4 Jun 2020 13:40:00 +0000: DAX207-13>APRS,,TCPIP*:@041340z5210.95N/01004.08E_260/001g002t058r008p000P034h91b10100l360eCumulusFOs
  • Thu, 4 Jun 2020 13:30:00 +0000: DAX207-13>APRS,,TCPIP*:@041330z5210.95N/01004.08E_309/000g002t058r008p000P034h91b10100l1033eCumulusFOs
  • Thu, 4 Jun 2020 13:20:00 +0000: DAX207-13>APRS,,TCPIP*:@041320z5210.95N/01004.08E_344/001g002t058r008p000P034h90b10100L119eCumulusFOs
  • Thu, 4 Jun 2020 13:10:00 +0000: DAX207-13>APRS,,TCPIP*:@041310z5210.95N/01004.08E_327/002g004t058r009p000P034h90b10100L137eCumulusFOs
  • Thu, 4 Jun 2020 13:00:00 +0000: DAX207-13>APRS,,TCPIP*:@041300z5210.95N/01004.08E_341/002g004t058r005p000P030h89b10100L843eCumulusFOs
  • Thu, 4 Jun 2020 12:50:00 +0000: DAX207-13>APRS,,TCPIP*:@041250z5210.95N/01004.08E_314/001g005t058r001p000P026h88b10102l1137eCumulusFOs
  • Thu, 4 Jun 2020 12:40:00 +0000: DAX207-13>APRS,,TCPIP*:@041240z5210.95N/01004.08E_320/002g003t059r001p000P026h88b10102L998eCumulusFOs